createdAt,value
2022-10-20T00:01:16.627Z,99.90
2022-10-20T00:03:44.792Z,99.90
2022-10-20T00:06:17.424Z,99.90
2022-10-20T00:08:45.448Z,99.90
2022-10-20T00:11:16.442Z,99.90
2022-10-20T00:13:46.560Z,99.90
2022-10-20T00:16:14.378Z,99.90
2022-10-20T00:18:41.894Z,99.90
2022-10-20T00:21:14.254Z,99.90
2022-10-20T00:23:41.178Z,99.90
2022-10-20T00:26:34.403Z,99.90
2022-10-20T00:29:03.509Z,99.90
2022-10-20T00:31:30.808Z,99.90
2022-10-20T00:33:57.840Z,99.90
2022-10-20T00:36:24.843Z,99.90
2022-10-20T00:38:57.157Z,99.90
2022-10-20T00:41:24.045Z,99.90
2022-10-20T00:44:32.767Z,99.90
2022-10-20T00:46:59.822Z,99.90
2022-10-20T00:49:27.029Z,99.90
2022-10-20T00:51:54.842Z,99.90
2022-10-20T00:54:26.148Z,99.90
2022-10-20T00:56:56.047Z,99.90
2022-10-20T00:59:29.792Z,99.90
2022-10-20T01:01:57.933Z,99.90
2022-10-20T01:04:28.153Z,99.90
2022-10-20T01:06:55.739Z,99.90
2022-10-20T01:09:22.760Z,99.90
2022-10-20T01:12:20.062Z,99.90
2022-10-20T01:15:09.859Z,99.90
2022-10-20T01:17:54.846Z,99.90
2022-10-20T01:20:39.717Z,99.90
2022-10-20T01:24:01.304Z,99.90
2022-10-20T01:26:37.703Z,99.90
2022-10-20T01:29:39.280Z,99.90
2022-10-20T01:32:59.516Z,99.90
2022-10-20T01:35:38.467Z,99.90
2022-10-20T01:38:22.378Z,99.90
2022-10-20T01:41:01.605Z,99.90
2022-10-20T01:43:34.446Z,99.90
2022-10-20T01:46:02.096Z,99.90
2022-10-20T01:48:33.162Z,99.90
2022-10-20T01:51:01.660Z,99.90
2022-10-20T01:53:28.891Z,99.90
2022-10-20T01:55:57.734Z,99.90
2022-10-20T01:59:03.547Z,99.90
2022-10-20T02:02:00.700Z,99.90
2022-10-20T02:05:05.740Z,99.90
2022-10-20T02:07:33.829Z,99.90
2022-10-20T02:10:08.173Z,99.90
2022-10-20T02:12:40.557Z,99.90
2022-10-20T02:15:11.807Z,99.90
2022-10-20T02:17:41.235Z,99.90
2022-10-20T02:20:10.358Z,99.90
2022-10-20T02:22:39.876Z,99.90
2022-10-20T02:25:11.949Z,99.90
2022-10-20T02:27:43.490Z,99.90
2022-10-20T02:30:14.547Z,99.90
2022-10-20T02:32:43.730Z,99.90
2022-10-20T02:35:21.049Z,99.90
2022-10-20T02:37:49.092Z,99.90
2022-10-20T02:40:16.267Z,99.90
2022-10-20T02:42:43.938Z,99.90
2022-10-20T02:45:11.309Z,99.90
2022-10-20T02:47:38.693Z,99.90
2022-10-20T02:50:07.542Z,99.90
2022-10-20T02:52:34.907Z,99.90
2022-10-20T02:55:01.732Z,99.90
2022-10-20T02:57:28.682Z,99.90
2022-10-20T02:59:55.608Z,99.90
2022-10-20T03:02:22.656Z,99.90
2022-10-20T03:04:49.535Z,99.90
2022-10-20T03:07:16.643Z,99.90
2022-10-20T03:09:44.215Z,99.90
2022-10-20T03:12:11.188Z,99.90
2022-10-20T03:14:38.054Z,99.90
2022-10-20T03:17:04.939Z,99.90
2022-10-20T03:19:31.830Z,99.90
2022-10-20T03:21:58.702Z,99.90
2022-10-20T03:24:25.683Z,99.90
2022-10-20T03:26:52.581Z,99.90
2022-10-20T03:29:19.595Z,99.90
2022-10-20T03:31:46.551Z,99.90
2022-10-20T03:34:13.467Z,99.90
2022-10-20T03:36:40.329Z,99.90
2022-10-20T03:39:07.260Z,99.90
2022-10-20T03:41:34.142Z,99.90
2022-10-20T03:44:01.173Z,99.90
2022-10-20T03:46:28.107Z,99.90
2022-10-20T03:48:55.099Z,99.90
2022-10-20T03:51:22.572Z,99.90
2022-10-20T03:53:49.499Z,99.90
2022-10-20T03:56:19.377Z,99.90
2022-10-20T03:58:46.814Z,99.90
2022-10-20T04:01:21.051Z,99.90
2022-10-20T04:03:48.211Z,99.90
2022-10-20T04:06:15.538Z,99.90
2022-10-20T04:08:42.779Z,99.90
2022-10-20T04:11:09.805Z,99.90
2022-10-20T04:13:36.775Z,99.90
2022-10-20T04:16:03.852Z,99.90
2022-10-20T04:18:31.599Z,99.90
2022-10-20T04:20:58.532Z,99.90
2022-10-20T04:23:25.634Z,99.90
2022-10-20T04:25:52.559Z,99.90
2022-10-20T04:28:20.914Z,99.90
2022-10-20T04:30:47.922Z,99.90
2022-10-20T04:33:15.141Z,99.90
2022-10-20T04:35:42.494Z,99.90
2022-10-20T04:38:09.382Z,99.90
2022-10-20T04:40:36.280Z,99.90
2022-10-20T04:43:03.535Z,99.90
2022-10-20T04:45:30.392Z,99.90
2022-10-20T04:47:57.290Z,99.90
2022-10-20T04:50:24.154Z,99.90
2022-10-20T04:52:51.364Z,99.90
2022-10-20T04:55:18.621Z,99.90
2022-10-20T04:57:45.499Z,99.90
2022-10-20T05:00:13.145Z,99.90
2022-10-20T05:02:40.029Z,99.90
2022-10-20T05:05:07.304Z,99.90
2022-10-20T05:07:34.811Z,99.90
2022-10-20T05:10:02.111Z,99.90
2022-10-20T05:12:29.028Z,99.90
2022-10-20T05:14:56.026Z,99.90
2022-10-20T05:17:22.946Z,99.90
2022-10-20T05:19:49.871Z,99.90
2022-10-20T05:22:16.777Z,99.90
2022-10-20T05:24:43.739Z,99.90
2022-10-20T05:27:10.631Z,99.90
2022-10-20T05:29:37.468Z,99.90
2022-10-20T05:32:04.584Z,99.90
2022-10-20T05:34:31.430Z,99.90
2022-10-20T05:36:58.349Z,99.90
2022-10-20T05:39:25.226Z,99.90
2022-10-20T05:41:53.464Z,99.90
2022-10-20T05:44:20.323Z,99.90
2022-10-20T05:46:47.233Z,99.90
2022-10-20T05:49:17.371Z,99.90
2022-10-20T05:51:46.779Z,99.90
2022-10-20T05:54:14.294Z,99.90
2022-10-20T05:56:41.466Z,99.90
2022-10-20T05:59:10.319Z,99.90
2022-10-20T06:01:55.360Z,99.90
2022-10-20T06:04:24.110Z,99.90
2022-10-20T06:06:52.738Z,99.90
2022-10-20T06:09:21.264Z,99.90
2022-10-20T06:11:48.791Z,99.90
2022-10-20T06:14:16.029Z,99.90
2022-10-20T06:16:43.920Z,99.90
2022-10-20T06:19:11.187Z,99.90
2022-10-20T06:21:38.608Z,99.90
2022-10-20T06:24:06.116Z,99.90
2022-10-20T06:26:36.604Z,99.90
2022-10-20T06:29:06.787Z,99.90
2022-10-20T06:31:39.005Z,99.90
2022-10-20T06:34:14.643Z,99.90
2022-10-20T06:36:42.389Z,99.90
2022-10-20T06:39:14.615Z,99.90
2022-10-20T06:41:41.611Z,99.90
2022-10-20T06:44:08.690Z,99.90
2022-10-20T06:46:37.446Z,99.90
2022-10-20T06:49:07.732Z,99.90
2022-10-20T06:51:35.846Z,99.90
2022-10-20T06:54:04.177Z,99.90
2022-10-20T06:56:34.090Z,99.90
2022-10-20T06:59:02.684Z,99.90
2022-10-20T07:01:32.495Z,99.90
2022-10-20T07:04:03.452Z,99.90
2022-10-20T07:06:39.775Z,99.90
2022-10-20T07:09:12.582Z,99.90
2022-10-20T07:11:39.649Z,99.90
2022-10-20T07:14:06.615Z,99.90
2022-10-20T07:16:35.362Z,99.90
2022-10-20T07:19:03.858Z,99.90
2022-10-20T07:21:35.713Z,99.90
2022-10-20T07:24:07.176Z,99.90
2022-10-20T07:26:38.493Z,99.90
2022-10-20T07:29:05.621Z,99.90
2022-10-20T07:31:45.312Z,99.90
2022-10-20T07:34:30.680Z,99.90
2022-10-20T07:36:58.023Z,99.90
2022-10-20T07:39:25.321Z,99.90
2022-10-20T07:41:52.271Z,99.90
2022-10-20T07:44:19.623Z,99.90
2022-10-20T07:46:46.534Z,99.90
2022-10-20T07:52:00.413Z,99.90
2022-10-20T07:54:27.302Z,99.90
2022-10-20T07:56:54.188Z,99.90
2022-10-20T07:59:21.332Z,99.90
2022-10-20T08:01:48.346Z,99.90
2022-10-20T08:04:15.238Z,99.90
2022-10-20T08:06:42.145Z,99.90
2022-10-20T08:09:09.121Z,99.90
2022-10-20T08:11:36.197Z,99.90
2022-10-20T08:14:03.389Z,99.90
2022-10-20T08:16:30.596Z,99.90
2022-10-20T08:19:09.585Z,99.90
2022-10-20T08:21:36.502Z,99.90
2022-10-20T08:24:03.858Z,99.90
2022-10-20T08:26:30.781Z,99.90
2022-10-20T08:28:57.669Z,99.90
2022-10-20T08:31:24.661Z,99.90
2022-10-20T08:33:53.130Z,99.90
2022-10-20T08:36:21.264Z,99.90
2022-10-20T08:38:48.881Z,99.90
2022-10-20T08:42:08.121Z,99.90
2022-10-20T08:44:34.509Z,99.90
2022-10-20T08:47:14.528Z,99.90
2022-10-20T08:49:41.505Z,99.90
2022-10-20T08:52:22.585Z,99.90
2022-10-20T08:54:55.354Z,99.90
2022-10-20T08:57:34.584Z,99.90
2022-10-20T09:00:18.366Z,99.90
2022-10-20T09:02:47.428Z,99.90
2022-10-20T09:05:19.208Z,99.90
2022-10-20T09:07:49.735Z,99.90
2022-10-20T09:10:16.447Z,99.70
2022-10-20T09:12:46.418Z,99.70
2022-10-20T09:15:16.451Z,99.90
2022-10-20T09:18:12.128Z,98.50
2022-10-20T09:21:07.799Z,98.00
2022-10-20T09:23:43.107Z,97.30
2022-10-20T09:26:53.513Z,97.10
2022-10-20T09:29:23.193Z,96.80
2022-10-20T09:31:55.564Z,94.80
2022-10-20T09:34:34.970Z,93.60
2022-10-20T09:37:13.483Z,94.30
2022-10-20T09:39:59.809Z,93.10
2022-10-20T09:42:37.681Z,93.70
2022-10-20T09:45:32.046Z,93.20
2022-10-20T09:48:26.210Z,92.30
2022-10-20T09:50:56.536Z,92.80
2022-10-20T09:53:59.109Z,92.80
2022-10-20T09:56:38.984Z,92.70
2022-10-20T09:59:38.964Z,93.50
2022-10-20T10:02:14.983Z,94.10
2022-10-20T10:04:45.865Z,93.80
2022-10-20T10:07:21.895Z,95.50
2022-10-20T10:10:26.380Z,95.40
2022-10-20T10:15:38.146Z,95.30
2022-10-20T10:18:23.176Z,96.30
2022-10-20T10:21:17.337Z,95.50
2022-10-20T10:24:04.637Z,94.60
2022-10-20T10:26:37.609Z,94.80
2022-10-20T10:29:05.258Z,94.60
2022-10-20T10:31:35.149Z,95.20
2022-10-20T10:35:02.086Z,95.90
2022-10-20T10:37:33.874Z,94.80
2022-10-20T10:40:13.326Z,95.20
2022-10-20T10:42:48.782Z,95.10
2022-10-20T10:46:22.679Z,95.80
2022-10-20T10:49:32.806Z,94.70
2022-10-20T10:52:09.015Z,94.40
2022-10-20T10:55:48.184Z,92.80
2022-10-20T10:58:39.819Z,92.50
2022-10-20T11:01:19.089Z,92.90
2022-10-20T11:04:33.390Z,92.70
2022-10-20T11:07:40.042Z,92.60
2022-10-20T11:10:38.306Z,92.20
2022-10-20T11:13:36.651Z,92.50
2022-10-20T11:16:47.141Z,91.90
2022-10-20T11:19:19.643Z,91.50
2022-10-20T11:22:29.767Z,90.70
2022-10-20T11:25:08.750Z,91.30
2022-10-20T11:27:37.986Z,90.80
2022-10-20T11:30:20.803Z,89.70
2022-10-20T11:33:23.699Z,90.00
2022-10-20T11:36:24.178Z,90.40
2022-10-20T11:38:56.217Z,89.50
2022-10-20T11:41:47.014Z,90.00
2022-10-20T11:44:31.202Z,90.40
2022-10-20T11:47:06.809Z,90.40
2022-10-20T11:49:34.404Z,90.80
2022-10-20T11:52:18.178Z,90.70
2022-10-20T11:55:24.184Z,89.80
2022-10-20T11:57:50.908Z,89.70
2022-10-20T12:03:14.442Z,89.70
2022-10-20T12:06:26.890Z,90.00
2022-10-20T12:09:33.819Z,90.80
2022-10-20T12:12:33.804Z,90.70
2022-10-20T12:15:18.920Z,91.10
2022-10-20T12:17:47.787Z,92.00
2022-10-20T12:20:20.602Z,92.30
2022-10-20T12:22:51.493Z,90.70
2022-10-20T12:25:25.191Z,91.10
2022-10-20T12:28:19.941Z,91.00
2022-10-20T12:31:05.760Z,91.00
2022-10-20T12:33:54.469Z,90.90
2022-10-20T12:36:29.711Z,90.80
2022-10-20T12:39:19.029Z,91.00
2022-10-20T12:42:06.023Z,90.60
2022-10-20T12:44:42.793Z,91.60
2022-10-20T12:47:10.590Z,91.70
2022-10-20T12:49:53.702Z,91.90
2022-10-20T12:52:24.483Z,92.40
2022-10-20T12:55:05.242Z,91.80
2022-10-20T12:57:43.133Z,92.10
2022-10-20T13:00:19.140Z,92.20
2022-10-20T13:02:56.759Z,90.50
2022-10-20T13:05:44.741Z,90.50
2022-10-20T13:08:25.871Z,91.90
2022-10-20T13:10:56.803Z,90.30
2022-10-20T13:13:23.537Z,90.30
2022-10-20T13:15:53.990Z,90.70
2022-10-20T13:18:36.877Z,90.60
2022-10-20T13:21:33.908Z,91.00
2022-10-20T13:24:28.296Z,91.10
2022-10-20T13:26:59.715Z,90.90
2022-10-20T13:29:53.279Z,90.90
2022-10-20T13:33:10.779Z,90.70
2022-10-20T13:35:49.705Z,91.50
2022-10-20T13:38:53.750Z,91.40
2022-10-20T13:41:36.955Z,91.90
2022-10-20T13:44:39.473Z,91.70
2022-10-20T13:47:19.209Z,91.20
2022-10-20T13:49:58.449Z,91.10
2022-10-20T13:52:28.755Z,91.50
2022-10-20T13:54:56.600Z,91.20
2022-10-20T13:57:30.228Z,91.20
2022-10-20T14:00:00.379Z,91.70
2022-10-20T14:02:35.012Z,90.80
2022-10-20T14:05:13.703Z,91.00
2022-10-20T14:07:44.045Z,91.50
2022-10-20T14:10:22.876Z,93.00
2022-10-20T14:12:49.906Z,92.20
2022-10-20T14:15:33.327Z,92.10
2022-10-20T14:18:07.811Z,92.50
2022-10-20T14:20:41.755Z,91.60
2022-10-20T14:23:11.393Z,93.10
2022-10-20T14:25:39.598Z,91.60
2022-10-20T14:28:07.643Z,91.80
2022-10-20T14:30:40.167Z,91.80
2022-10-20T14:33:18.327Z,93.30
2022-10-20T14:35:52.642Z,93.60
2022-10-20T14:38:29.589Z,92.90
2022-10-20T14:40:58.842Z,93.10
2022-10-20T14:43:39.054Z,93.00
2022-10-20T14:46:10.100Z,93.60
2022-10-20T14:48:45.218Z,92.90
2022-10-20T14:51:41.002Z,93.00
2022-10-20T14:54:20.088Z,93.30
2022-10-20T14:56:59.293Z,93.60
2022-10-20T14:59:32.638Z,93.60
2022-10-20T15:02:12.527Z,93.70
2022-10-20T15:04:44.535Z,93.90
2022-10-20T15:07:34.649Z,93.90
2022-10-20T15:10:14.673Z,94.70
2022-10-20T15:12:49.846Z,94.10
2022-10-20T15:15:18.832Z,94.30
2022-10-20T15:17:50.260Z,94.40
2022-10-20T15:20:32.444Z,95.70
2022-10-20T15:23:01.509Z,94.60
2022-10-20T15:25:32.882Z,94.80
2022-10-20T15:27:59.928Z,94.90
2022-10-20T15:30:27.553Z,95.20
2022-10-20T15:32:55.022Z,95.50
2022-10-20T15:35:24.190Z,96.80
2022-10-20T15:37:53.772Z,96.90
2022-10-20T15:40:22.037Z,96.20
2022-10-20T15:42:49.425Z,96.90
2022-10-20T15:45:22.661Z,97.40
2022-10-20T15:47:49.571Z,97.30
2022-10-20T15:50:19.497Z,98.50
2022-10-20T15:52:48.762Z,98.40
2022-10-20T15:55:30.837Z,98.60
2022-10-20T15:57:58.052Z,99.00
2022-10-20T16:00:28.001Z,99.20
2022-10-20T16:02:55.699Z,99.50
2022-10-20T16:05:24.954Z,99.60
2022-10-20T16:07:54.114Z,99.70
2022-10-20T16:10:29.505Z,99.90
2022-10-20T16:12:57.778Z,99.90
2022-10-20T16:15:30.190Z,99.90
2022-10-20T16:17:59.039Z,99.90
2022-10-20T16:20:25.886Z,99.90
2022-10-20T16:22:53.118Z,99.90
2022-10-20T16:25:19.961Z,99.90
2022-10-20T16:27:46.891Z,99.90
2022-10-20T16:30:13.886Z,99.90
2022-10-20T16:32:41.110Z,99.90
2022-10-20T16:35:09.478Z,99.90
2022-10-20T16:37:36.526Z,99.90
2022-10-20T16:40:04.186Z,99.90
2022-10-20T16:42:31.340Z,99.90
2022-10-20T16:44:58.597Z,99.90
2022-10-20T16:47:26.182Z,99.90
2022-10-20T16:49:53.760Z,99.90
2022-10-20T16:52:20.839Z,99.90
2022-10-20T16:54:47.728Z,99.90
2022-10-20T16:57:14.952Z,99.90
2022-10-20T16:59:42.881Z,99.90
2022-10-20T17:02:14.031Z,99.90
2022-10-20T17:04:42.364Z,99.90
2022-10-20T17:07:09.338Z,99.90
2022-10-20T17:09:36.292Z,99.90
2022-10-20T17:12:03.368Z,99.90
2022-10-20T17:14:30.276Z,99.90
2022-10-20T17:16:57.317Z,99.90
2022-10-20T17:19:24.167Z,99.90
2022-10-20T17:21:55.802Z,99.90
2022-10-20T17:24:24.432Z,99.90
2022-10-20T17:26:51.385Z,99.90
2022-10-20T17:29:22.292Z,99.90
2022-10-20T17:31:52.271Z,99.90
2022-10-20T17:34:19.184Z,99.90
2022-10-20T17:36:46.033Z,99.90
2022-10-20T17:39:16.451Z,99.90
2022-10-20T17:41:43.670Z,99.90
2022-10-20T17:44:10.870Z,99.90
2022-10-20T17:46:38.849Z,99.90
2022-10-20T17:49:06.495Z,99.90
2022-10-20T17:51:34.974Z,99.90
2022-10-20T17:54:02.281Z,99.90
2022-10-20T17:56:34.347Z,99.90
2022-10-20T17:59:03.095Z,99.90
2022-10-20T18:01:32.925Z,99.90
2022-10-20T18:04:12.304Z,99.90
2022-10-20T18:06:40.172Z,99.90
2022-10-20T18:09:13.269Z,99.90
2022-10-20T18:11:45.080Z,99.90
2022-10-20T18:14:12.117Z,99.90
2022-10-20T18:16:40.199Z,99.90
2022-10-20T18:19:08.304Z,99.90
2022-10-20T18:21:35.275Z,99.90
2022-10-20T18:24:06.305Z,99.90
2022-10-20T18:26:36.360Z,99.90
2022-10-20T18:29:06.950Z,99.90
2022-10-20T18:31:36.392Z,99.90
2022-10-20T18:34:07.970Z,99.90
2022-10-20T18:36:40.344Z,99.90
2022-10-20T18:39:10.848Z,99.90
2022-10-20T18:41:40.519Z,99.90
2022-10-20T18:44:15.202Z,99.90
2022-10-20T18:46:42.818Z,99.90
2022-10-20T18:49:13.499Z,99.90
2022-10-20T18:51:40.910Z,99.90
2022-10-20T18:54:09.671Z,99.90
2022-10-20T18:56:36.907Z,99.90
2022-10-20T18:59:08.511Z,99.90
2022-10-20T19:01:38.436Z,99.90
2022-10-20T19:04:07.023Z,99.90
2022-10-20T19:06:44.513Z,99.90
2022-10-20T19:09:19.121Z,99.90
2022-10-20T19:11:47.276Z,99.90
2022-10-20T19:14:15.681Z,99.90
2022-10-20T19:16:46.063Z,99.90
2022-10-20T19:19:15.578Z,99.90
2022-10-20T19:21:42.756Z,99.90
2022-10-20T19:24:18.229Z,99.90
2022-10-20T19:27:02.075Z,99.90
2022-10-20T19:29:35.606Z,99.90
2022-10-20T19:32:05.171Z,99.90
2022-10-20T19:34:39.575Z,99.90
2022-10-20T19:37:07.940Z,99.90
2022-10-20T19:39:38.878Z,99.90
2022-10-20T19:42:07.724Z,99.90
2022-10-20T19:44:35.266Z,99.90
2022-10-20T19:47:02.532Z,99.90
2022-10-20T19:49:29.525Z,99.90
2022-10-20T19:51:57.054Z,99.90
2022-10-20T19:54:24.237Z,99.90
2022-10-20T19:56:51.141Z,99.90
2022-10-20T19:59:18.329Z,99.90
2022-10-20T20:01:45.353Z,99.90
2022-10-20T20:04:12.427Z,99.90
2022-10-20T20:06:39.461Z,99.90
2022-10-20T20:09:09.132Z,99.90
2022-10-20T20:11:37.738Z,99.90
2022-10-20T20:14:10.732Z,99.90
2022-10-20T20:16:38.117Z,99.90
2022-10-20T20:19:06.062Z,99.90
2022-10-20T20:21:32.871Z,99.90
2022-10-20T20:24:02.156Z,99.90
2022-10-20T20:26:32.371Z,99.90
2022-10-20T20:28:59.675Z,99.90
2022-10-20T20:31:27.687Z,99.90
2022-10-20T20:33:56.719Z,99.90
2022-10-20T20:36:27.061Z,99.90
2022-10-20T20:38:59.205Z,99.90
2022-10-20T20:41:30.046Z,99.90
2022-10-20T20:43:57.455Z,99.90
2022-10-20T20:46:29.082Z,99.90
2022-10-20T20:48:56.966Z,99.90
2022-10-20T20:51:25.283Z,99.90
2022-10-20T20:53:52.215Z,99.90
2022-10-20T20:56:21.767Z,99.90
2022-10-20T20:58:55.050Z,99.90
2022-10-20T21:01:28.144Z,99.90
2022-10-20T21:03:57.920Z,99.90
2022-10-20T21:06:33.579Z,99.90
2022-10-20T21:09:01.385Z,99.90
2022-10-20T21:11:28.496Z,99.90
2022-10-20T21:13:57.516Z,99.90
2022-10-20T21:16:31.423Z,99.90
2022-10-20T21:19:05.505Z,99.90
2022-10-20T21:21:35.748Z,99.90
2022-10-20T21:24:05.153Z,99.90
2022-10-20T21:26:33.215Z,99.90
2022-10-20T21:29:00.256Z,99.90
2022-10-20T21:31:28.790Z,99.90
2022-10-20T21:34:04.689Z,99.90
2022-10-20T21:36:35.319Z,99.90
2022-10-20T21:39:06.269Z,99.90
2022-10-20T21:41:35.792Z,99.90
2022-10-20T21:44:05.918Z,99.90
2022-10-20T21:46:43.831Z,99.90
2022-10-20T21:49:15.619Z,99.90
2022-10-20T21:51:46.510Z,99.90
2022-10-20T21:54:17.490Z,99.90
2022-10-20T21:56:46.856Z,99.90
2022-10-20T21:59:24.046Z,99.90
2022-10-20T22:01:53.654Z,99.90
2022-10-20T22:04:24.869Z,99.90
2022-10-20T22:06:51.986Z,99.90
2022-10-20T22:09:20.954Z,99.90
2022-10-20T22:11:59.008Z,99.90
2022-10-20T22:14:26.404Z,99.90
2022-10-20T22:16:55.369Z,99.90
2022-10-20T22:19:24.828Z,99.90
2022-10-20T22:21:53.020Z,99.90
2022-10-20T22:24:21.190Z,99.90
2022-10-20T22:26:51.495Z,99.90
2022-10-20T22:29:20.297Z,99.90
2022-10-20T22:31:47.295Z,99.90
2022-10-20T22:34:14.590Z,99.90
2022-10-20T22:36:41.614Z,99.90
2022-10-20T22:39:08.979Z,99.90
2022-10-20T22:41:36.546Z,99.90
2022-10-20T22:44:03.850Z,99.90
2022-10-20T22:46:30.949Z,99.90
2022-10-20T22:51:25.659Z,99.90
2022-10-20T22:53:52.670Z,99.90
2022-10-20T22:56:22.500Z,99.90
2022-10-20T22:58:52.342Z,99.90
2022-10-20T23:01:21.696Z,99.90
2022-10-20T23:03:48.819Z,99.90
2022-10-20T23:06:19.967Z,99.90
2022-10-20T23:08:50.431Z,99.90
2022-10-20T23:11:18.249Z,99.90
2022-10-20T23:13:45.877Z,99.90
2022-10-20T23:16:13.422Z,99.90
2022-10-20T23:18:40.720Z,99.90
2022-10-20T23:21:07.914Z,99.90
2022-10-20T23:23:37.236Z,99.90
2022-10-20T23:26:06.332Z,99.90
2022-10-20T23:28:34.514Z,99.90
2022-10-20T23:31:07.620Z,99.90
2022-10-20T23:33:34.493Z,99.90
2022-10-20T23:36:01.401Z,99.90
2022-10-20T23:38:28.265Z,99.90
2022-10-20T23:40:55.131Z,99.90
2022-10-20T23:43:22.040Z,99.90
2022-10-20T23:45:48.997Z,99.90
2022-10-20T23:48:15.854Z,99.90
2022-10-20T23:50:45.785Z,99.90
2022-10-20T23:53:13.286Z,99.90
2022-10-20T23:55:40.230Z,99.90
2022-10-20T23:58:07.134Z,99.90
